Time;durP1;ratioP1;P1;durP2;ratioP2;P2;SDS_P1;SDS_P2;PMS_P1;PMS_P2;Temp;Humidity;BMP_temperature;BMP_pressure;BME280_temperature;BME280_humidity;BME280_pressure;Samples;Min_cycle;Max_cycle;Signal;HPM_P1;HPM_P2
2021/05/02 00:01:25;;;;;;;4.32;1.25;;;19.50;99.90;;;;;;5091602;28;20032;-49
2021/05/02 00:03:51;;;;;;;2.10;0.90;;;19.40;99.90;;;;;;5091288;28;20471;-50
2021/05/02 00:06:17;;;;;;;4.15;1.05;;;19.40;99.90;;;;;;5091086;28;20028;-49
2021/05/02 00:08:43;;;;;;;1.52;1.10;;;19.30;99.90;;;;;;5091318;28;20028;-49
2021/05/02 00:11:10;;;;;;;4.97;1.50;;;19.30;99.90;;;;;;5091434;28;20074;-49
2021/05/02 00:13:37;;;;;;;1.80;1.00;;;19.30;99.90;;;;;;5091157;28;20135;-49
2021/05/02 00:16:05;;;;;;;2.58;1.08;;;19.40;99.90;;;;;;5074700;28;20119;-50
2021/05/02 00:18:33;;;;;;;4.30;1.40;;;19.50;99.90;;;;;;5091183;28;20483;-49
2021/05/02 00:21:00;;;;;;;4.53;1.52;;;19.40;99.90;;;;;;5030916;28;20037;-49
2021/05/02 00:23:26;;;;;;;4.43;2.25;;;19.30;99.90;;;;;;5008608;28;20121;-49
2021/05/02 00:25:52;;;;;;;2.03;1.00;;;19.20;99.90;;;;;;5011520;28;20034;-49
2021/05/02 00:28:19;;;;;;;2.00;1.10;;;19.20;99.90;;;;;;5011512;28;20034;-49
2021/05/02 00:30:45;;;;;;;2.50;1.00;;;19.10;99.90;;;;;;5011405;28;20508;-49
2021/05/02 00:33:11;;;;;;;2.45;1.30;;;19.00;99.90;;;;;;5011264;28;20034;-49
2021/05/02 00:35:38;;;;;;;2.97;0.98;;;19.00;99.90;;;;;;5009018;28;20061;-49
2021/05/02 00:38:04;;;;;;;5.75;1.02;;;18.90;99.90;;;;;;5011123;28;20038;-49
2021/05/02 00:40:40;;;;;;;4.95;1.02;;;18.70;99.90;;;;;;5011197;28;20049;-49
2021/05/02 00:43:08;;;;;;;3.47;1.00;;;18.70;99.90;;;;;;5011209;28;20045;-49
2021/05/02 00:45:46;;;;;;;1.83;0.65;;;18.60;99.90;;;;;;5011087;28;20038;-49
2021/05/02 00:48:20;;;;;;;2.38;0.93;;;18.60;99.90;;;;;;5010943;28;20034;-49
2021/05/02 00:50:54;;;;;;;1.98;0.70;;;18.50;99.90;;;;;;5012135;28;20393;-49
2021/05/02 00:53:38;;;;;;;2.88;0.73;;;18.40;99.90;;;;;;5070749;28;20032;-49
2021/05/02 00:56:22;;;;;;;2.78;0.70;;;18.50;99.90;;;;;;5070888;28;20037;-50
2021/05/02 00:59:09;;;;;;;1.70;0.60;;;18.40;99.90;;;;;;5070735;28;20063;-49
2021/05/02 01:01:49;;;;;;;2.70;1.20;;;18.40;99.90;;;;;;5088857;28;20043;-49
2021/05/02 01:04:20;;;;;;;3.80;1.23;;;18.50;99.90;;;;;;5091159;28;20119;-49
2021/05/02 01:06:51;;;;;;;5.63;0.90;;;18.50;99.90;;;;;;5091338;28;20043;-49
2021/05/02 01:09:17;;;;;;;3.88;1.20;;;18.40;99.90;;;;;;5093243;28;20068;-49
2021/05/02 01:11:46;;;;;;;3.50;1.10;;;;;;;;;;5108324;28;20039;-49
2021/05/02 01:14:15;;;;;;;1.75;0.82;;;18.20;99.90;;;;;;5093000;28;20072;-49
2021/05/02 01:16:41;;;;;;;2.40;1.00;;;18.40;99.90;;;;;;5108554;28;20039;-49
2021/05/02 01:19:12;;;;;;;6.25;1.10;;;18.20;99.90;;;;;;5095056;28;20370;-49
2021/05/02 01:21:40;;;;;;;2.95;1.00;;;18.20;99.90;;;;;;5096573;28;20111;-48
2021/05/02 01:24:08;;;;;;;3.75;0.75;;;18.00;99.90;;;;;;5094579;28;20479;-49
2021/05/02 01:26:45;;;;;;;2.20;0.80;;;18.00;99.90;;;;;;5094736;28;20040;-49
2021/05/02 01:29:13;;;;;;;4.05;1.50;;;17.90;99.90;;;;;;5096510;28;20371;-50
2021/05/02 01:31:40;;;;;;;1.58;0.90;;;17.90;99.90;;;;;;5096409;28;20039;-49
2021/05/02 01:34:06;;;;;;;2.83;1.08;;;17.80;99.90;;;;;;5096293;28;20077;-49
2021/05/02 01:36:32;;;;;;;2.45;0.90;;;17.70;99.90;;;;;;5061078;28;20036;-49
2021/05/02 01:39:02;;;;;;;4.25;1.23;;;17.70;99.90;;;;;;5096330;28;20099;-49
2021/05/02 01:41:28;;;;;;;1.65;0.90;;;17.80;99.90;;;;;;5094888;28;20031;-49
2021/05/02 01:43:54;;;;;;;3.08;0.95;;;17.70;99.90;;;;;;5060160;28;20070;-49
2021/05/02 01:46:36;;;;;;;3.45;1.77;;;17.80;99.90;;;;;;5060142;28;20044;-49
2021/05/02 01:49:02;;;;;;;4.93;1.33;;;17.90;99.90;;;;;;5093669;28;20111;-49
2021/05/02 01:51:34;;;;;;;4.80;1.50;;;17.80;99.90;;;;;;5093939;28;20032;-49
2021/05/02 01:54:01;;;;;;;4.60;1.27;;;17.80;99.90;;;;;;5076887;28;20488;-49
2021/05/02 01:56:30;;;;;;;5.47;1.10;;;17.60;99.90;;;;;;5093947;28;20089;-49
2021/05/02 01:58:58;;;;;;;3.83;1.10;;;17.40;99.90;;;;;;5076907;28;20032;-49
2021/05/02 02:01:26;;;;;;;3.50;1.23;;;17.20;99.90;;;;;;5093616;28;20028;-49
2021/05/02 02:03:54;;;;;;;2.10;1.20;;;17.10;99.90;;;;;;5093495;28;20076;-49
2021/05/02 02:06:20;;;;;;;2.88;1.45;;;17.00;99.90;;;;;;5093487;28;20032;-49
2021/05/02 02:08:46;;;;;;;2.47;1.15;;;17.10;99.90;;;;;;5059906;28;20066;-49
2021/05/02 02:11:12;;;;;;;4.00;1.83;;;17.10;99.90;;;;;;5093336;28;20032;-49
2021/05/02 02:13:38;;;;;;;5.45;1.10;;;17.00;99.90;;;;;;5059675;28;20048;-49
2021/05/02 02:16:08;;;;;;;3.08;1.25;;;17.00;99.90;;;;;;5095311;28;20040;-50
2021/05/02 02:18:34;;;;;;;1.52;0.85;;;17.00;99.90;;;;;;5095614;28;20031;-49
2021/05/02 02:21:01;;;;;;;3.25;1.17;;;17.10;99.90;;;;;;5095856;28;20035;-49
2021/05/02 02:23:31;;;;;;;2.80;0.98;;;17.10;99.90;;;;;;5095207;28;20032;-49
2021/05/02 02:26:11;;;;;;;4.70;1.42;;;17.20;99.90;;;;;;5095302;28;20025;-49
2021/05/02 02:28:38;;;;;;;2.63;0.73;;;17.20;99.90;;;;;;5095132;28;20471;-49
2021/05/02 02:31:09;;;;;;;2.92;1.25;;;17.10;99.90;;;;;;5095574;28;20028;-49
2021/05/02 02:33:36;;;;;;;3.85;1.42;;;17.00;99.90;;;;;;5110605;28;20111;-49
2021/05/02 02:36:02;;;;;;;2.05;0.93;;;17.00;99.90;;;;;;5095009;28;20111;-49
2021/05/02 02:38:29;;;;;;;1.88;0.90;;;16.80;99.90;;;;;;5093120;28;20028;-49
2021/05/02 02:40:57;;;;;;;4.20;1.25;;;16.60;99.90;;;;;;5095170;28;20043;-49
2021/05/02 02:43:25;;;;;;;1.48;0.75;;;16.40;99.90;;;;;;5110133;28;20079;-49
2021/05/02 02:45:54;;;;;;;2.22;1.30;;;16.50;99.90;;;;;;5094555;28;20032;-49
2021/05/02 02:48:23;;;;;;;4.00;1.20;;;16.50;99.90;;;;;;5094641;28;20020;-49
2021/05/02 02:50:51;;;;;;;2.50;1.02;;;16.50;99.90;;;;;;5094892;28;20024;-49
2021/05/02 02:53:21;;;;;;;3.72;1.40;;;16.50;99.90;;;;;;5095114;28;20016;-49
2021/05/02 02:56:01;;;;;;;3.13;1.58;;;16.70;99.90;;;;;;5092910;28;20127;-49
2021/05/02 02:58:34;;;;;;;4.03;1.10;;;16.90;99.90;;;;;;5108174;28;20032;-49
2021/05/02 03:01:02;;;;;;;3.13;1.10;;;17.20;99.90;;;;;;5109916;28;20040;-49
2021/05/02 03:03:31;;;;;;;4.13;1.08;;;17.40;99.90;;;;;;5094677;28;20028;-50
2021/05/02 03:05:59;;;;;;;3.13;1.33;;;17.60;99.90;;;;;;5094826;28;20032;-49
2021/05/02 03:08:28;;;;;;;1.42;0.73;;;17.80;99.90;;;;;;5094389;28;20110;-49
2021/05/02 03:10:54;;;;;;;5.32;1.60;;;17.90;99.90;;;;;;5094466;28;20094;-49
2021/05/02 03:13:20;;;;;;;3.58;1.05;;;17.80;99.90;;;;;;5094123;28;20073;-49
2021/05/02 03:15:47;;;;;;;3.58;0.93;;;17.50;99.90;;;;;;5094562;28;20027;-49
2021/05/02 03:18:24;;;;;;;2.53;1.73;;;17.40;99.90;;;;;;5092310;28;20042;-50
2021/05/02 03:20:58;;;;;;;2.15;1.13;;;16.90;99.90;;;;;;5109611;28;20430;-49
2021/05/02 03:23:43;;;;;;;3.33;1.17;;;16.80;99.90;;;;;;5094103;28;20063;-49
2021/05/02 03:26:11;;;;;;;1.70;1.00;;;16.50;99.90;;;;;;5109435;28;20101;-49
2021/05/02 03:28:54;;;;;;;2.25;1.40;;;16.20;99.90;;;;;;5093905;28;20103;-49
2021/05/02 03:31:38;;;;;;;1.63;0.95;;;16.20;99.90;;;;;;5094071;28;20039;-50
2021/05/02 03:34:06;;;;;;;1.52;0.82;;;;;;;;;;5094758;28;20039;-49
2021/05/02 03:36:39;;;;;;;3.17;1.35;;;;;;;;;;5094363;28;20054;-49
2021/05/02 03:39:06;;;;;;;5.13;1.33;;;;;;;;;;5093932;28;20109;-49
2021/05/02 03:41:35;;;;;;;3.08;1.33;;;;;;;;;;5092221;28;20616;-49
2021/05/02 03:44:01;;;;;;;3.45;1.77;;;;;;;;;;5093876;28;20028;-49
2021/05/02 03:46:28;;;;;;;3.92;1.10;;;;;;;;;;5094208;28;20093;-49
2021/05/02 03:48:54;;;;;;;3.75;1.10;;;;;;;;;;5093873;28;20479;-49
2021/05/02 03:51:20;;;;;;;4.30;1.23;;;15.50;99.90;;;;;;5093930;28;20399;-49
2021/05/02 03:53:46;;;;;;;3.22;1.30;;;15.60;99.90;;;;;;5093964;28;20110;-49
2021/05/02 03:56:12;;;;;;;2.55;1.38;;;15.50;99.90;;;;;;5093847;28;20115;-49
2021/05/02 03:58:38;;;;;;;3.22;1.55;;;15.60;99.90;;;;;;5058017;28;20044;-49
2021/05/02 04:01:03;;;;;;;4.28;1.42;;;15.80;99.90;;;;;;5093770;28;20024;-49
2021/05/02 04:03:30;;;;;;;3.67;1.40;;;;;;;;;;5093919;28;20064;-49
2021/05/02 04:05:55;;;;;;;3.47;1.23;;;16.30;99.90;;;;;;5091812;28;20034;-49
2021/05/02 04:08:21;;;;;;;3.92;1.88;;;16.60;99.90;;;;;;5093353;28;20107;-49
2021/05/02 04:10:47;;;;;;;2.55;1.55;;;16.90;99.90;;;;;;5109247;28;20089;-49
2021/05/02 04:13:12;;;;;;;2.60;1.17;;;17.00;99.90;;;;;;5093413;28;20052;-49
2021/05/02 04:15:39;;;;;;;2.85;1.17;;;;;;;;;;5093908;28;20024;-49
2021/05/02 04:18:05;;;;;;;3.75;1.83;;;;;;;;;;5093680;28;20062;-49
2021/05/02 04:20:30;;;;;;;3.53;1.42;;;17.40;99.90;;;;;;5093284;28;20031;-49
2021/05/02 04:22:56;;;;;;;4.18;1.67;;;17.50;99.90;;;;;;5093284;28;20027;-49
2021/05/02 04:25:22;;;;;;;5.55;1.27;;;17.70;99.90;;;;;;5093245;28;20051;-50
2021/05/02 04:27:48;;;;;;;2.05;1.15;;;17.90;99.90;;;;;;5093412;28;20032;-49
2021/05/02 04:30:14;;;;;;;4.43;1.48;;;18.00;99.90;;;;;;5093200;28;20032;-49
2021/05/02 04:32:39;;;;;;;4.53;1.52;;;18.00;99.90;;;;;;5091462;28;20040;-49
2021/05/02 04:35:06;;;;;;;5.20;1.65;;;18.00;99.90;;;;;;5091753;28;20036;-49
2021/05/02 04:37:32;;;;;;;3.22;1.27;;;18.10;99.90;;;;;;5091353;28;20111;-49
2021/05/02 04:39:57;;;;;;;3.03;1.33;;;18.20;99.90;;;;;;5091526;28;20118;-49
2021/05/02 04:42:23;;;;;;;1.88;0.90;;;18.30;99.90;;;;;;5057671;28;20035;-50
2021/05/02 04:44:49;;;;;;;2.72;1.30;;;18.30;99.90;;;;;;5093343;28;20465;-49
2021/05/02 04:47:18;;;;;;;5.18;1.42;;;18.30;99.90;;;;;;5091533;28;20115;-49
2021/05/02 04:49:45;;;;;;;3.88;1.52;;;18.40;99.90;;;;;;5092884;28;20044;-49
2021/05/02 04:52:13;;;;;;;4.75;2.15;;;18.30;99.90;;;;;;5091340;28;20113;-49
2021/05/02 04:54:39;;;;;;;5.93;1.80;;;18.30;99.90;;;;;;5028040;28;20040;-49
2021/05/02 04:57:05;;;;;;;3.85;2.00;;;18.20;99.90;;;;;;5097404;28;20497;-49
2021/05/02 04:59:30;;;;;;;3.72;1.67;;;18.10;99.90;;;;;;5094998;28;20047;-49
2021/05/02 05:01:56;;;;;;;4.32;1.95;;;18.10;99.90;;;;;;5061431;28;20044;-49
2021/05/02 05:04:22;;;;;;;5.97;1.58;;;18.10;99.90;;;;;;5097161;28;20481;-49
2021/05/02 05:06:48;;;;;;;5.63;2.20;;;18.10;99.90;;;;;;5096716;28;20024;-49
2021/05/02 05:09:14;;;;;;;5.25;1.98;;;18.20;99.90;;;;;;5097178;28;20103;-49
2021/05/02 05:11:40;;;;;;;4.78;1.90;;;;;;;;;;5112056;28;20040;-49
2021/05/02 05:14:06;;;;;;;4.25;1.85;;;18.40;99.90;;;;;;5096657;28;20094;-49
2021/05/02 05:16:32;;;;;;;6.20;2.42;;;;;;;;;;5095052;28;20068;-49
2021/05/02 05:18:58;;;;;;;3.17;1.58;;;;;;;;;;5111857;28;20497;-48
2021/05/02 05:21:24;;;;;;;3.40;1.35;;;18.70;99.90;;;;;;5094831;28;20127;-49
2021/05/02 05:23:49;;;;;;;3.85;1.40;;;18.80;99.90;;;;;;5096382;28;20060;-49
2021/05/02 05:26:15;;;;;;;4.78;1.83;;;19.20;99.90;;;;;;5094758;28;20048;-49
2021/05/02 05:28:41;;;;;;;3.92;2.00;;;19.50;99.90;;;;;;5060728;28;20093;-49
2021/05/02 05:31:07;;;;;;;5.45;1.98;;;19.40;99.90;;;;;;5094596;28;20471;-49
2021/05/02 05:33:33;;;;;;;8.48;2.58;;;;;;;;;;5096324;28;20027;-50
2021/05/02 05:35:59;;;;;;;5.15;1.70;;;19.60;99.90;;;;;;5094488;28;20460;-49
2021/05/02 05:38:25;;;;;;;6.13;1.73;;;19.90;99.90;;;;;;5096757;28;20024;-49
2021/05/02 05:40:51;;;;;;;6.15;1.50;;;20.10;99.90;;;;;;5096263;28;20057;-49
2021/05/02 05:43:17;;;;;;;2.70;1.45;;;20.10;99.90;;;;;;5111314;28;20032;-49
2021/05/02 05:45:44;;;;;;;4.32;1.77;;;20.00;99.90;;;;;;5111316;28;20088;-49
2021/05/02 05:48:10;;;;;;;4.68;1.80;;;20.00;99.90;;;;;;5096242;28;20036;-49
2021/05/02 05:50:36;;;;;;;4.25;2.05;;;20.20;99.90;;;;;;5095754;28;20502;-49
2021/05/02 05:53:01;;;;;;;4.03;2.22;;;20.20;99.90;;;;;;5094160;28;20036;-49
2021/05/02 05:55:27;;;;;;;5.93;2.20;;;20.40;99.90;;;;;;5095829;28;20024;-49
2021/05/02 05:57:53;;;;;;;6.00;2.67;;;20.50;99.90;;;;;;5095697;28;20050;-49
2021/05/02 06:00:21;;;;;;;4.32;2.15;;;20.60;99.90;;;;;;5060239;28;20028;-49
2021/05/02 06:02:48;;;;;;;6.45;2.10;;;20.80;99.90;;;;;;5095889;28;20023;-49
2021/05/02 06:05:15;;;;;;;8.45;3.03;;;21.00;99.90;;;;;;5095253;28;20073;-49
2021/05/02 06:07:41;;;;;;;5.47;2.40;;;21.10;99.90;;;;;;5095528;28;20039;-49
2021/05/02 06:10:08;;;;;;;6.53;2.13;;;21.40;99.90;;;;;;5095883;28;20517;-49
2021/05/02 06:12:34;;;;;;;6.60;2.40;;;21.60;99.90;;;;;;5110793;28;20089;-49
2021/05/02 06:15:04;;;;;;;7.10;2.83;;;;;;;;;;5110837;28;20039;-49
2021/05/02 06:17:30;;;;;;;13.32;3.88;;;22.10;99.90;;;;;;5095369;28;20467;-49
2021/05/02 06:19:55;;;;;;;4.03;1.70;;;22.30;99.90;;;;;;5110598;28;20043;-49
2021/05/02 06:22:21;;;;;;;13.65;3.13;;;22.30;99.90;;;;;;5091630;28;20035;-49
2021/05/02 06:24:47;;;;;;;5.47;2.22;;;22.60;99.90;;;;;;5090586;28;20567;-50
2021/05/02 06:27:13;;;;;;;6.10;2.72;;;22.70;99.90;;;;;;5092333;28;20028;-49
2021/05/02 06:29:39;;;;;;;5.15;2.15;;;22.90;99.90;;;;;;5034992;28;20094;-50
2021/05/02 06:32:05;;;;;;;8.20;3.38;;;23.00;99.90;;;;;;5089657;28;20024;-49
2021/05/02 06:34:30;;;;;;;3.08;1.70;;;23.20;99.90;;;;;;5075227;28;20027;-49
2021/05/02 06:36:59;;;;;;;6.53;1.73;;;23.20;99.90;;;;;;5072988;28;20036;-48
2021/05/02 06:39:26;;;;;;;7.30;2.42;;;23.10;99.90;;;;;;5077858;28;20040;-51
2021/05/02 06:41:52;;;;;;;6.15;2.10;;;23.20;99.90;;;;;;5089057;28;20111;-50
2021/05/02 06:44:18;;;;;;;4.78;1.55;;;23.40;99.90;;;;;;5074928;28;20056;-53
2021/05/02 06:46:44;;;;;;;2.95;1.77;;;23.60;99.90;;;;;;5056006;28;20509;-49
2021/05/02 06:49:11;;;;;;;4.55;1.60;;;;;;;;;;5074605;28;20123;-48
2021/05/02 06:51:37;;;;;;;7.53;1.70;;;23.60;99.90;;;;;;5074502;28;20029;-51
2021/05/02 06:54:05;;;;;;;3.70;2.10;;;23.80;99.90;;;;;;5074334;28;20032;-53
2021/05/02 06:56:31;;;;;;;6.65;1.90;;;23.90;99.90;;;;;;5076933;28;20028;-51
2021/05/02 06:58:57;;;;;;;6.93;2.20;;;23.90;99.90;;;;;;5083822;28;20020;-52
2021/05/02 07:01:23;;;;;;;9.10;1.90;;;24.20;99.90;;;;;;5083073;28;20152;-52
2021/05/02 07:03:49;;;;;;;6.70;2.20;;;24.40;99.90;;;;;;5049724;28;20039;-49
2021/05/02 07:06:15;;;;;;;7.32;2.17;;;;;;;;;;5094230;28;20054;-50
2021/05/02 07:08:41;;;;;;;5.72;1.60;;;24.70;99.90;;;;;;5098240;28;20082;-51
2021/05/02 07:11:07;;;;;;;6.18;1.70;;;24.70;99.90;;;;;;5074427;28;20032;-51
2021/05/02 07:13:33;;;;;;;7.45;2.70;;;24.80;99.90;;;;;;5073615;28;20048;-49
2021/05/02 07:15:59;;;;;;;8.35;1.85;;;;;;;;;;5073116;28;20044;-54
2021/05/02 07:18:33;;;;;;;5.97;1.98;;;25.10;99.90;;;;;;5073942;28;20058;-54
2021/05/02 07:21:00;;;;;;;9.55;2.35;;;25.30;99.90;;;;;;5038774;28;20064;-54
2021/05/02 07:23:26;;;;;;;12.80;2.30;;;25.10;99.90;;;;;;5073718;28;20025;-53
2021/05/02 07:25:52;;;;;;;9.35;2.47;;;25.40;99.90;;;;;;5073828;28;20032;-55
2021/05/02 07:28:18;;;;;;;10.05;3.28;;;25.50;99.90;;;;;;5080004;28;20548;-56
2021/05/02 07:30:44;;;;;;;7.47;1.85;;;25.50;99.90;;;;;;5094236;28;20068;-56
2021/05/02 07:33:10;;;;;;;9.00;2.22;;;25.40;99.90;;;;;;5050990;28;20033;-51
2021/05/02 07:35:35;;;;;;;8.77;2.35;;;25.50;99.90;;;;;;5051434;28;20064;-52
2021/05/02 07:38:02;;;;;;;9.38;2.08;;;;;;;;;;5034747;28;20553;-55
2021/05/02 07:40:28;;;;;;;6.43;1.90;;;26.00;99.90;;;;;;5051479;28;20025;-54
2021/05/02 07:42:54;;;;;;;9.85;2.38;;;26.30;99.90;;;;;;5017893;28;20082;-55
2021/05/02 07:45:20;;;;;;;7.15;2.42;;;26.50;99.90;;;;;;5051390;28;20041;-54
2021/05/02 07:47:46;;;;;;;9.85;2.63;;;;;;;;;;5034621;28;20037;-52
2021/05/02 07:50:12;;;;;;;7.93;1.92;;;26.40;99.90;;;;;;5051222;28;20033;-53
2021/05/02 07:52:38;;;;;;;8.68;2.28;;;26.60;99.90;;;;;;5034681;28;20037;-51
2021/05/02 07:55:04;;;;;;;8.70;2.10;;;26.80;99.90;;;;;;5051033;28;20108;-52
2021/05/02 07:57:33;;;;;;;7.97;2.40;;;27.10;99.90;;;;;;5051234;28;20559;-53
2021/05/02 08:00:01;;;;;;;8.85;2.13;;;27.20;99.90;;;;;;5034236;28;20039;-54
2021/05/02 08:02:27;;;;;;;8.65;2.28;;;27.20;99.90;;;;;;5051300;28;20037;-55
2021/05/02 08:04:53;;;;;;;8.05;2.38;;;27.50;99.90;;;;;;5051106;28;20654;-55
2021/05/02 08:07:18;;;;;;;8.05;1.73;;;27.50;99.90;;;;;;5051180;28;20029;-54
2021/05/02 08:09:44;;;;;;;10.15;2.45;;;27.40;99.90;;;;;;5057595;28;20036;-51
2021/05/02 08:12:10;;;;;;;7.60;2.58;;;27.70;99.90;;;;;;5093432;28;20028;-53
2021/05/02 08:14:36;;;;;;;13.05;2.13;;;27.70;99.90;;;;;;5108407;28;20410;-53
2021/05/02 08:17:03;;;;;;;7.93;2.20;;;;;;;;;;5093259;28;20024;-54
2021/05/02 08:19:28;;;;;;;10.63;2.28;;;27.90;98.50;;;;;;5092629;28;20091;-56
2021/05/02 08:21:54;;;;;;;8.85;2.38;;;28.00;98.90;;;;;;5089535;28;20115;-55
2021/05/02 08:24:20;;;;;;;11.50;3.20;;;28.20;98.70;;;;;;5079350;28;20157;-55
2021/05/02 08:26:47;;;;;;;9.45;1.70;;;;;;;;;;5085844;28;20035;-53
2021/05/02 08:29:13;;;;;;;6.10;2.20;;;28.30;97.00;;;;;;5082235;28;20080;-55
2021/05/02 08:31:39;;;;;;;10.25;2.42;;;28.50;97.50;;;;;;5074811;28;20039;-55
2021/05/02 08:34:05;;;;;;;10.70;1.88;;;28.50;96.40;;;;;;5075323;28;20036;-55
2021/05/02 08:36:31;;;;;;;13.60;2.17;;;28.50;95.60;;;;;;5061480;28;20101;-54
2021/05/02 08:38:58;;;;;;;7.47;1.80;;;28.60;94.70;;;;;;5094465;28;20068;-57
2021/05/02 08:41:25;;;;;;;12.77;2.22;;;28.70;94.70;;;;;;5050974;28;20091;-55
2021/05/02 08:43:52;;;;;;;9.30;2.20;;;;;;;;;;5074816;28;20124;-54
2021/05/02 08:46:18;;;;;;;12.57;2.22;;;28.90;94.80;;;;;;5075029;28;20570;-57
2021/05/02 08:48:44;;;;;;;10.40;1.75;;;29.00;94.50;;;;;;5075077;28;20048;-53
2021/05/02 08:51:11;;;;;;;12.52;3.13;;;28.80;92.50;;;;;;5024181;28;20036;-54
2021/05/02 08:53:36;;;;;;;8.82;2.55;;;28.70;91.90;;;;;;5074640;28;20060;-54
2021/05/02 08:56:03;;;;;;;10.43;2.30;;;28.80;92.00;;;;;;5074572;28;20506;-54
2021/05/02 08:58:29;;;;;;;9.75;2.17;;;29.00;91.60;;;;;;5040699;28;20086;-54
2021/05/02 09:00:59;;;;;;;7.35;1.98;;;29.30;91.70;;;;;;5075996;28;20444;-54
2021/05/02 09:03:46;;;;;;;14.25;2.17;;;29.10;91.50;;;;;;5076401;28;20028;-56
2021/05/02 09:06:19;;;;;;;7.95;2.58;;;29.00;90.90;;;;;;5057944;28;20399;-56
2021/05/02 09:08:46;;;;;;;9.93;2.63;;;28.70;90.80;;;;;;5075127;28;20063;-54
2021/05/02 09:11:12;;;;;;;8.48;1.60;;;28.60;90.50;;;;;;5076328;28;20032;-56
2021/05/02 09:13:50;;;;;;;5.32;1.55;;;28.80;90.80;;;;;;5076411;28;20125;-52
2021/05/02 09:16:16;;;;;;;11.38;2.60;;;29.10;91.00;;;;;;5076614;28;20067;-54
2021/05/02 09:18:50;;;;;;;10.38;1.90;;;29.50;91.00;;;;;;5076748;28;20063;-56
2021/05/02 09:21:25;;;;;;;10.95;2.67;;;29.70;91.40;;;;;;5076369;28;20108;-54
2021/05/02 09:23:51;;;;;;;11.35;2.72;;;30.00;92.40;;;;;;5076120;28;20039;-54
2021/05/02 09:26:23;;;;;;;12.30;2.33;;;29.90;91.10;;;;;;5076597;28;20475;-54
2021/05/02 09:28:55;;;;;;;12.70;1.77;;;29.90;90.90;;;;;;5074516;28;20089;-52
2021/05/02 09:31:28;;;;;;;10.65;2.42;;;29.70;90.20;;;;;;5076189;28;20048;-56
2021/05/02 09:34:09;;;;;;;10.43;2.35;;;29.50;90.40;;;;;;5074766;28;20119;-55
2021/05/02 09:36:49;;;;;;;13.43;3.08;;;29.40;90.40;;;;;;5075971;28;20114;-55
2021/05/02 09:39:33;;;;;;;9.07;2.70;;;29.60;90.90;;;;;;5075508;28;20112;-56
2021/05/02 09:42:23;;;;;;;11.55;2.65;;;29.90;90.20;;;;;;5076523;28;20095;-53
2021/05/02 09:44:53;;;;;;;11.70;2.40;;;;;;;;;;5053953;28;20044;-54
2021/05/02 09:47:19;;;;;;;13.25;3.17;;;30.30;98.00;;;;;;5053677;28;20049;-54
2021/05/02 09:50:22;;;;;;;13.55;2.15;;;30.30;97.70;;;;;;5053665;28;20045;-54
2021/05/02 09:53:06;;;;;;;11.90;2.70;;;30.30;89.30;;;;;;5053693;28;20039;-56
2021/05/02 09:55:45;;;;;;;14.20;2.40;;;30.40;90.10;;;;;;5053477;28;20048;-53
2021/05/02 09:58:16;;;;;;;9.70;2.83;;;;;;;;;;5053599;28;20033;-54
2021/05/02 10:00:43;;;;;;;10.60;4.10;;;31.00;87.40;;;;;;5053768;28;20037;-54
2021/05/02 10:03:13;;;;;;;11.32;1.83;;;30.90;86.30;;;;;;5053486;28;20036;-53
2021/05/02 10:05:56;;;;;;;10.68;2.83;;;30.60;87.60;;;;;;5053571;28;20132;-55
2021/05/02 10:08:28;;;;;;;10.18;2.33;;;30.10;85.40;;;;;;5050647;28;20512;-56
2021/05/02 10:10:56;;;;;;;12.40;2.45;;;29.70;87.40;;;;;;5053355;28;20051;-56
2021/05/02 10:13:22;;;;;;;14.77;2.65;;;29.40;88.50;;;;;;5049718;28;20059;-52
2021/05/02 10:15:48;;;;;;;6.88;2.20;;;29.30;87.10;;;;;;5019876;28;20120;-53
2021/05/02 10:18:14;;;;;;;14.23;2.45;;;29.20;89.30;;;;;;5053084;28;20029;-54
2021/05/02 10:20:44;;;;;;;17.38;2.70;;;29.20;88.20;;;;;;5053803;28;20037;-55
2021/05/02 10:23:12;;;;;;;11.43;2.60;;;29.60;89.80;;;;;;5074956;28;20036;-53
2021/05/02 10:25:38;;;;;;;6.97;2.30;;;29.80;90.00;;;;;;5073166;28;20107;-56
2021/05/02 10:28:05;;;;;;;12.80;2.38;;;30.30;88.70;;;;;;5053187;28;20078;-56
2021/05/02 10:30:33;;;;;;;14.77;2.58;;;30.40;85.30;;;;;;5071459;28;20445;-56
2021/05/02 10:33:10;;;;;;;15.60;2.72;;;30.60;86.30;;;;;;5071453;28;20435;-54
2021/05/02 10:35:43;;;;;;;10.27;2.05;;;30.30;84.70;;;;;;5037938;28;20595;-54
2021/05/02 10:38:10;;;;;;;13.02;3.92;;;30.00;85.50;;;;;;5071367;28;20064;-53
2021/05/02 10:40:37;;;;;;;14.75;2.60;;;29.80;83.00;;;;;;5071389;28;20407;-56
2021/05/02 10:43:08;;;;;;;8.60;2.78;;;29.70;85.60;;;;;;5071037;28;20119;-55
2021/05/02 10:45:34;;;;;;;11.45;2.45;;;29.30;87.60;;;;;;5070813;28;20025;-55
2021/05/02 10:48:01;;;;;;;12.00;2.78;;;29.10;89.10;;;;;;5071178;28;20448;-55
2021/05/02 10:50:38;;;;;;;13.45;2.30;;;29.10;90.00;;;;;;5070933;28;20123;-56
2021/05/02 10:53:05;;;;;;;10.18;2.22;;;28.90;85.10;;;;;;5071002;28;20621;-55
2021/05/02 10:56:05;;;;;;;17.10;2.70;;;28.90;86.10;;;;;;5070720;28;20506;-56
2021/05/02 10:58:38;;;;;;;13.82;2.60;;;28.90;87.20;;;;;;5071510;28;20109;-53
2021/05/02 11:01:10;;;;;;;11.35;1.88;;;28.60;86.60;;;;;;5088158;28;20067;-55
2021/05/02 11:03:36;;;;;;;12.13;2.60;;;28.30;90.00;;;;;;5073251;28;20379;-53
2021/05/02 11:06:39;;;;;;;12.95;3.20;;;28.60;86.70;;;;;;5073547;28;20039;-53
2021/05/02 11:09:10;;;;;;;15.60;2.60;;;28.70;87.70;;;;;;5070318;28;20037;-54
2021/05/02 11:11:47;;;;;;;10.10;2.53;;;28.80;86.40;;;;;;5073109;28;20031;-54
2021/05/02 11:16:46;;;;;;;14.02;2.67;;;29.10;88.30;;;;;;5073208;28;20430;-53
2021/05/02 11:19:12;;;;;;;12.82;2.25;;;29.60;87.10;;;;;;5073246;28;20055;-54
2021/05/02 11:21:47;;;;;;;13.75;2.65;;;29.80;84.20;;;;;;5072624;28;20400;-53
2021/05/02 11:24:14;;;;;;;9.50;2.85;;;30.10;85.00;;;;;;5072862;28;20066;-56
2021/05/02 11:29:24;;;;;;;10.93;2.25;;;30.60;81.30;;;;;;5073192;28;20028;-55
2021/05/02 11:31:50;;;;;;;16.42;3.15;;;30.80;81.00;;;;;;5075249;28;20060;-53
2021/05/02 11:34:16;;;;;;;11.77;2.47;;;31.10;78.00;;;;;;5092709;28;20030;-53
2021/05/02 11:36:43;;;;;;;14.15;2.42;;;31.20;73.90;;;;;;5092560;28;20028;-55
2021/05/02 11:39:29;;;;;;;12.32;2.70;;;31.00;76.00;;;;;;5093165;28;20085;-53
2021/05/02 11:42:01;;;;;;;15.45;3.40;;;30.80;77.20;;;;;;5085681;28;20043;-53
2021/05/02 11:44:28;;;;;;;14.80;2.17;;;30.50;76.00;;;;;;5092927;28;20067;-55
2021/05/02 11:46:54;;;;;;;10.27;2.47;;;30.40;76.30;;;;;;5107646;28;20475;-54
2021/05/02 11:49:19;;;;;;;12.05;2.05;;;30.50;76.10;;;;;;5092899;28;20044;-52
2021/05/02 11:51:55;;;;;;;11.88;2.50;;;30.40;74.20;;;;;;5092704;28;20027;-55
2021/05/02 11:54:21;;;;;;;11.88;2.22;;;30.90;75.50;;;;;;5092922;28;20103;-53
2021/05/02 11:56:51;;;;;;;14.77;2.40;;;30.80;76.60;;;;;;5090393;28;20115;-56
2021/05/02 11:59:17;;;;;;;12.77;2.60;;;31.10;76.40;;;;;;5093041;28;20078;-53
2021/05/02 12:01:47;;;;;;;10.88;2.03;;;31.20;73.20;;;;;;5108424;28;20036;-55
2021/05/02 12:04:16;;;;;;;21.27;3.67;;;31.40;75.40;;;;;;5108821;28;20047;-55
2021/05/02 12:06:42;;;;;;;18.83;3.88;;;32.40;71.10;;;;;;5093508;28;20475;-55
2021/05/02 12:09:22;;;;;;;13.90;3.40;;;34.20;68.00;;;;;;5108904;28;20040;-56
2021/05/02 12:11:57;;;;;;;24.10;3.55;;;35.10;66.10;;;;;;5093696;28;20054;-55
2021/05/02 12:14:33;;;;;;;21.15;4.20;;;33.70;63.80;;;;;;5108785;28;20059;-55
2021/05/02 12:16:59;;;;;;;16.17;4.13;;;33.10;61.80;;;;;;5093396;28;20475;-61
2021/05/02 12:19:31;;;;;;;21.02;3.92;;;33.30;62.20;;;;;;5093512;28;20028;-60
2021/05/02 12:21:57;;;;;;;16.83;3.78;;;33.50;61.20;;;;;;5093776;28;20107;-59
2021/05/02 12:24:26;;;;;;;13.57;3.35;;;32.80;60.20;;;;;;5093815;28;20512;-59
2021/05/02 12:26:57;;;;;;;20.98;3.90;;;33.50;62.30;;;;;;5093564;28;20483;-58
2021/05/02 12:29:28;;;;;;;21.90;3.65;;;32.00;61.90;;;;;;5106074;28;20105;-61
2021/05/02 12:32:00;;;;;;;19.20;4.22;;;33.70;60.10;;;;;;5093633;28;20024;-60
2021/05/02 12:34:28;;;;;;;15.77;3.47;;;33.90;61.70;;;;;;5093556;28;20107;-61
2021/05/02 12:36:55;;;;;;;15.82;3.53;;;35.40;61.40;;;;;;5093111;28;20028;-56
2021/05/02 12:39:33;;;;;;;17.65;4.47;;;34.70;59.30;;;;;;5093378;28;20028;-55
2021/05/02 12:41:59;;;;;;;15.10;3.65;;;;;;;;;;5093277;28;20016;-56
2021/05/02 12:44:27;;;;;;;16.08;4.93;;;34.70;66.00;;;;;;5093294;28;20036;-54
2021/05/02 12:46:59;;;;;;;17.08;3.50;;;34.10;59.10;;;;;;5093109;28;20103;-56
2021/05/02 12:49:34;;;;;;;17.30;3.97;;;35.70;59.10;;;;;;5093276;28;20395;-56
2021/05/02 12:52:12;;;;;;;16.35;3.72;;;38.50;56.20;;;;;;5093102;28;20051;-56
2021/05/02 12:54:38;;;;;;;18.55;4.00;;;37.40;56.00;;;;;;5093614;28;20039;-57
2021/05/02 12:57:10;;;;;;;17.73;3.53;;;36.60;56.00;;;;;;5093132;28;20024;-55
2021/05/02 13:00:03;;;;;;;24.05;3.90;;;37.10;55.60;;;;;;5093202;28;20375;-55
2021/05/02 13:02:32;;;;;;;20.67;4.18;;;37.10;54.90;;;;;;5093037;28;20036;-55
2021/05/02 13:05:02;;;;;;;16.85;3.95;;;35.70;55.60;;;;;;5092964;28;20036;-56
2021/05/02 13:07:35;;;;;;;17.35;3.63;;;34.10;55.50;;;;;;5093024;28;20364;-55